Time;durP1;ratioP1;P1;durP2;ratioP2;P2;SDS_P1;SDS_P2;PMS_P1;PMS_P2;Temp;Humidity;BMP_temperature;BMP_pressure;BME280_temperature;BME280_humidity;BME280_pressure;Samples;Min_cycle;Max_cycle;Signal;HPM_P1;HPM_P2
2021/01/14 00:00:34;;;;;;;3.08;2.78;;;;;;;0.47;100.00;95405.31;1036262;28;20014;-82
2021/01/14 00:01:10;;;;;;;4.22;2.97;;;;;;;0.50;100.00;95409.34;1036648;28;20064;-82
2021/01/14 00:01:43;;;;;;;2.78;2.47;;;;;;;0.48;100.00;95396.53;1036240;28;20478;-82
2021/01/14 00:02:13;;;;;;;2.65;2.45;;;;;;;0.49;100.00;95398.13;1036137;28;20360;-83
2021/01/14 00:02:44;;;;;;;2.92;2.70;;;;;;;0.50;100.00;95399.72;1036090;28;20029;-83
2021/01/14 00:03:14;;;;;;;2.83;2.50;;;;;;;0.51;100.00;95401.31;1040341;28;20091;-83
2021/01/14 00:03:54;;;;;;;2.90;2.60;;;;;;;0.54;100.00;95408.72;1036001;28;20383;-81
2021/01/14 00:04:24;;;;;;;3.37;3.07;;;;;;;0.52;100.00;95405.53;1036370;28;20029;-82
2021/01/14 00:05:00;;;;;;;3.20;2.90;;;;;;;0.50;100.00;95407.53;1032154;28;20245;-82
2021/01/14 00:05:31;;;;;;;3.15;2.90;;;;;;;0.50;100.00;95404.94;1034240;28;20500;-82
2021/01/14 00:06:04;;;;;;;2.90;2.70;;;;;;;0.50;100.00;95412.75;1035107;28;20121;-83
2021/01/14 00:06:35;;;;;;;3.35;3.05;;;;;;;0.54;100.00;95410.53;1036066;28;20021;-82
2021/01/14 00:07:05;;;;;;;3.00;2.70;;;;;;;0.53;100.00;95414.16;1036507;28;20030;-82
2021/01/14 00:07:36;;;;;;;3.42;3.05;;;;;;;0.50;100.00;95410.16;1036310;28;20460;-82
2021/01/14 00:08:07;;;;;;;2.85;2.60;;;;;;;0.52;100.00;95413.34;1041951;28;20053;-84
2021/01/14 00:08:37;;;;;;;2.65;2.45;;;;;;;0.53;100.00;95419.38;1044582;28;20083;-82
2021/01/14 00:09:07;;;;;;;2.92;2.72;;;;;;;0.52;100.00;95418.56;1040168;28;20033;-82
2021/01/14 00:09:40;;;;;;;3.03;2.75;;;;;;;0.52;100.00;95412.56;1040171;28;20021;-82
2021/01/14 00:10:11;;;;;;;3.65;3.35;;;;;;;0.50;100.00;95417.16;1036212;28;20407;-81
2021/01/14 00:10:42;;;;;;;3.10;2.80;;;;;;;0.51;100.00;95409.13;1036227;28;20778;-82
2021/01/14 00:11:13;;;;;;;3.42;2.97;;;;;;;0.52;100.00;95418.56;1040185;28;20030;-82
2021/01/14 00:11:49;;;;;;;3.17;2.97;;;;;;;0.52;100.00;95418.56;1040628;28;20098;-83
2021/01/14 00:12:20;;;;;;;2.90;2.70;;;;;;;0.54;100.00;95418.34;1044946;28;20671;-81
2021/01/14 00:12:50;;;;;;;3.00;2.60;;;;;;;0.52;100.00;95418.56;1044319;28;20009;-82
2021/01/14 00:13:21;;;;;;;3.15;2.85;;;;;;;0.53;100.00;95425.38;1044237;28;20079;-81
2021/01/14 00:13:51;;;;;;;2.65;2.45;;;;;;;0.53;100.00;95430.59;1040124;28;20425;-82
2021/01/14 00:14:21;;;;;;;3.33;3.03;;;;;;;0.53;100.00;95425.38;1040281;28;20466;-82
2021/01/14 00:14:52;;;;;;;2.97;2.30;;;;;;;0.54;100.00;95426.19;1040073;28;20355;-83
2021/01/14 00:15:26;;;;;;;3.25;2.95;;;;;;;0.52;100.00;95423.78;1044193;28;20071;-83
2021/01/14 00:15:56;;;;;;;3.10;2.70;;;;;;;0.53;100.00;95430.59;1044234;28;20017;-82
2021/01/14 00:16:27;;;;;;;5.00;3.33;;;;;;;0.53;100.00;95420.16;1044230;28;20029;-83
2021/01/14 00:16:57;;;;;;;2.70;2.50;;;;;;;0.52;100.00;95429.00;1044085;28;20016;-84
2021/01/14 00:17:27;;;;;;;3.30;3.00;;;;;;;0.52;100.00;95423.78;1044055;28;20017;-82
2021/01/14 00:18:01;;;;;;;4.30;2.75;;;;;;;0.50;100.00;95425.00;1044262;28;20391;-82
2021/01/14 00:18:31;;;;;;;3.35;3.05;;;;;;;0.51;100.00;95426.59;1044353;28;20021;-82
2021/01/14 00:19:03;;;;;;;2.80;2.60;;;;;;;0.51;100.00;95424.00;1044145;28;20017;-81
2021/01/14 00:19:33;;;;;;;3.38;3.08;;;;;;;0.52;100.00;95421.16;1044318;28;20013;-82
2021/01/14 00:20:12;;;;;;;3.30;2.90;;;;;;;0.52;100.00;95423.78;1044641;28;20024;-81
2021/01/14 00:20:42;;;;;;;2.75;2.55;;;;;;;0.51;100.00;95418.78;1044471;28;20024;-82
2021/01/14 00:21:13;;;;;;;2.75;2.42;;;;;;;0.54;100.00;95420.97;1044692;28;20021;-82
2021/01/14 00:21:43;;;;;;;3.13;2.83;;;;;;;0.55;100.00;95427.78;1044598;28;20024;-83
2021/01/14 00:22:14;;;;;;;3.22;2.92;;;;;;;0.49;100.00;95424.19;1044458;28;20025;-81
2021/01/14 00:22:45;;;;;;;2.60;2.40;;;;;;;0.49;100.00;95418.97;1044486;28;20078;-83
2021/01/14 00:23:18;;;;;;;2.95;2.65;;;;;;;0.50;100.00;95410.16;1040024;28;20026;-82
2021/01/14 00:23:49;;;;;;;3.53;3.22;;;;;;;0.50;100.00;95423.19;1040170;28;20075;-82
2021/01/14 00:24:19;;;;;;;2.65;2.45;;;;;;;0.50;100.00;95404.94;1040260;28;20022;-82
2021/01/14 00:24:49;;;;;;;3.10;2.80;;;;;;;0.47;100.00;95415.75;1036464;28;20018;-81
2021/01/14 00:25:20;;;;;;;3.05;2.80;;;;;;;0.47;100.00;95420.16;1040157;28;20026;-82
2021/01/14 00:25:50;;;;;;;2.80;2.60;;;;;;;0.48;100.00;95422.59;1040088;28;20025;-81
2021/01/14 00:26:21;;;;;;;2.95;2.33;;;;;;;0.48;100.00;95417.38;1040089;28;20406;-83
2021/01/14 00:26:51;;;;;;;2.85;2.65;;;;;;;0.47;100.00;95420.16;1044462;28;20020;-82
2021/01/14 00:27:23;;;;;;;2.60;2.40;;;;;;;0.48;100.00;95416.56;1038898;28;20033;-83
2021/01/14 00:27:55;;;;;;;2.75;2.55;;;;;;;0.46;100.00;95421.97;1040115;28;20100;-82
2021/01/14 00:28:27;;;;;;;2.72;2.53;;;;;;;0.48;100.00;95422.59;1031643;28;20076;-82
2021/01/14 00:28:57;;;;;;;2.80;2.60;;;;;;;0.48;100.00;95416.56;1028616;28;20026;-82
2021/01/14 00:29:28;;;;;;;8.00;2.70;;;;;;;0.49;100.00;95423.41;1032089;28;20022;-82
2021/01/14 00:29:58;;;;;;;2.78;2.58;;;;;;;0.46;100.00;95416.75;1032570;28;20468;-83
2021/01/14 00:30:30;;;;;;;3.10;2.90;;;;;;;0.46;100.00;95429.78;1040295;28;20484;-83
2021/01/14 00:31:00;;;;;;;2.90;2.70;;;;;;;0.47;100.00;95418.34;1044680;28;20058;-83
2021/01/14 00:31:31;;;;;;;2.70;2.50;;;;;;;0.42;100.00;95420.78;1044483;28;20508;-82
2021/01/14 00:32:02;;;;;;;2.88;2.65;;;;;;;0.45;100.00;95424.78;1044416;28;20025;-82
2021/01/14 00:32:35;;;;;;;2.88;2.67;;;;;;;0.45;100.00;95425.56;1044655;28;20021;-82
2021/01/14 00:33:06;;;;;;;2.60;2.40;;;;;;;0.44;100.00;95426.59;1044623;28;20114;-84
2021/01/14 00:33:36;;;;;;;2.83;2.63;;;;;;;0.45;100.00;95415.16;1044668;28;20021;-82
2021/01/14 00:34:08;;;;;;;2.83;2.58;;;;;;;0.46;100.00;95413.34;1040204;28;20435;-83
2021/01/14 00:34:39;;;;;;;2.75;2.55;;;;;;;0.48;100.00;95422.59;1040549;28;20554;-82
2021/01/14 00:35:09;;;;;;;3.47;3.17;;;;;;;0.48;100.00;95419.97;1040302;28;20111;-82
2021/01/14 00:35:43;;;;;;;3.10;2.80;;;;;;;0.48;100.00;95419.19;1036415;28;20022;-82
2021/01/14 00:36:14;;;;;;;2.42;2.22;;;;;;;0.50;100.00;95419.78;1040256;28;20025;-82
2021/01/14 00:37:51;;;;;;;2.30;2.08;;;;;;;0.53;100.00;95428.00;1038417;28;20021;-82
2021/01/14 00:38:23;;;;;;;2.42;2.22;;;;;;;0.53;100.00;95429.78;1046942;28;20031;-81
2021/01/14 00:39:00;;;;;;;3.13;2.63;;;;;;;0.51;100.00;95437.81;1046630;28;20020;-82
2021/01/14 00:39:30;;;;;;;2.50;2.30;;;;;;;0.52;100.00;95433.41;1046233;28;20025;-80
2021/01/14 00:40:01;;;;;;;2.50;2.30;;;;;;;0.52;100.00;95438.63;1046324;28;20028;-81
2021/01/14 00:40:32;;;;;;;2.60;2.40;;;;;;;0.53;100.00;95448.03;1042183;28;20510;-82
2021/01/14 00:41:03;;;;;;;2.30;2.10;;;;;;;0.51;100.00;95443.03;1042099;28;20021;-81
2021/01/14 00:41:36;;;;;;;3.22;2.92;;;;;;;0.51;100.00;95447.44;1045776;28;20025;-82
2021/01/14 00:42:07;;;;;;;2.50;2.30;;;;;;;0.48;100.00;95438.22;1040767;28;20056;-81
2021/01/14 00:42:40;;;;;;;2.80;2.60;;;;;;;0.50;100.00;95451.06;1040201;28;20549;-81
2021/01/14 00:43:12;;;;;;;2.45;2.25;;;;;;;0.51;100.00;95439.63;1040011;28;20021;-82
2021/01/14 00:43:43;;;;;;;2.47;2.28;;;;;;;0.53;100.00;95441.03;1041097;28;20125;-82
2021/01/14 00:44:14;;;;;;;2.38;2.17;;;;;;;0.53;100.00;95445.44;1040048;28;20504;-82
2021/01/14 00:44:47;;;;;;;2.45;2.25;;;;;;;0.54;100.00;95437.41;1036046;28;20041;-82
2021/01/14 00:45:19;;;;;;;2.42;2.22;;;;;;;0.55;100.00;95433.00;1033406;28;20041;-82
2021/01/14 00:45:52;;;;;;;2.78;2.58;;;;;;;0.56;100.00;95434.59;1036342;28;20034;-81
2021/01/14 00:46:23;;;;;;;2.03;1.88;;;;;;;0.56;100.00;95435.41;1040908;28;20029;-83
2021/01/14 00:46:56;;;;;;;2.72;2.42;;;;;;;0.56;100.00;95432.00;1044615;28;20025;-82
2021/01/14 00:47:32;;;;;;;3.05;2.67;;;;;;;0.54;100.00;95426.97;1040031;28;20038;-82
2021/01/14 00:48:03;;;;;;;2.90;2.17;;;;;;;0.54;100.00;95439.22;1038258;28;20030;-81
2021/01/14 00:48:34;;;;;;;2.78;2.58;;;;;;;0.53;100.00;95441.03;1039942;28;20030;-81
2021/01/14 00:49:05;;;;;;;2.67;2.28;;;;;;;0.54;100.00;95458.28;1036476;28;20133;-82
2021/01/14 00:49:35;;;;;;;3.00;2.70;;;;;;;0.53;100.00;95442.84;1040004;28;20033;-81
2021/01/14 00:50:06;;;;;;;2.22;2.00;;;;;;;0.50;100.00;95451.88;1036013;28;20030;-81
2021/01/14 00:50:39;;;;;;;2.58;2.38;;;;;;;0.52;100.00;95455.06;1034080;28;20073;-82
2021/01/14 00:51:11;;;;;;;2.70;2.50;;;;;;;0.53;100.00;95445.44;1040070;28;20413;-80
2021/01/14 00:51:44;;;;;;;2.42;2.20;;;;;;;0.50;100.00;95454.47;1036526;28;20029;-82
2021/01/14 00:52:14;;;;;;;2.55;2.35;;;;;;;0.48;100.00;95450.47;1039995;28;20032;-82
2021/01/14 00:52:47;;;;;;;3.05;2.47;;;;;;;0.48;100.00;95440.84;1040189;28;20493;-82
2021/01/14 00:53:20;;;;;;;2.10;2.00;;;;;;;0.49;100.00;95455.47;1040971;28;20021;-82
2021/01/14 00:53:50;;;;;;;2.50;2.30;;;;;;;0.46;100.00;95440.22;1044398;28;20016;-82
2021/01/14 00:54:21;;;;;;;3.05;2.75;;;;;;;0.50;100.00;95444.03;1044476;28;20016;-82
2021/01/14 00:54:51;;;;;;;2.85;2.20;;;;;;;0.50;100.00;95446.66;1044521;28;20051;-82
2021/01/14 00:55:22;;;;;;;2.40;2.20;;;;;;;0.48;100.00;95455.69;1044457;28;20413;-82
2021/01/14 00:55:52;;;;;;;1.70;1.60;;;;;;;0.48;100.00;95459.09;1044438;28;20044;-82
2021/01/14 00:56:36;;;;;;;3.03;2.58;;;;;;;0.49;100.00;95460.69;1044484;28;20013;-81
2021/01/14 00:57:09;;;;;;;2.45;2.25;;;;;;;0.50;100.00;95451.88;1044266;28;20020;-82
2021/01/14 00:57:39;;;;;;;3.03;2.30;;;;;;;0.48;100.00;95453.06;1041882;28;20017;-81
2021/01/14 00:58:10;;;;;;;3.25;2.38;;;;;;;0.47;100.00;95446.22;1044472;28;20450;-82
2021/01/14 00:58:40;;;;;;;2.40;2.20;;;;;;;0.46;100.00;95440.22;1044480;28;20017;-82
2021/01/14 00:59:12;;;;;;;2.25;2.05;;;;;;;0.49;100.00;95444.25;1044190;28;20009;-82
2021/01/14 00:59:42;;;;;;;2.60;2.40;;;;;;;0.49;100.00;95449.47;1044524;28;20036;-82
2021/01/14 01:00:19;;;;;;;2.28;2.08;;;;;;;0.47;100.00;95451.44;1044273;28;20036;-82
2021/01/14 01:00:56;;;;;;;2.05;1.85;;;;;;;0.49;100.00;95439.84;1040323;28;20025;-83
2021/01/14 01:01:27;;;;;;;2.35;2.15;;;;;;;0.49;100.00;95445.06;1038188;28;20481;-81
2021/01/14 01:01:57;;;;;;;2.47;2.22;;;;;;;0.50;100.00;95444.03;1040086;28;20032;-82
2021/01/14 01:02:28;;;;;;;3.05;2.55;;;;;;;0.52;100.00;95446.44;1040729;28;20075;-82
2021/01/14 01:02:58;;;;;;;2.38;2.17;;;;;;;0.47;100.00;95457.47;1043920;28;20021;-82
2021/01/14 01:03:29;;;;;;;2.60;2.38;;;;;;;0.46;100.00;95466.28;1043991;28;20009;-82
2021/01/14 01:03:59;;;;;;;3.05;2.75;;;;;;;0.44;100.00;95463.09;1044503;28;20028;-82
2021/01/14 01:04:30;;;;;;;3.53;2.78;;;;;;;0.46;100.00;95463.69;1044453;28;20005;-82
2021/01/14 01:05:01;;;;;;;2.60;2.40;;;;;;;0.43;100.00;95448.44;1044115;28;20025;-82
2021/01/14 01:05:31;;;;;;;2.50;2.30;;;;;;;0.43;100.00;95445.84;1039924;28;20017;-83
2021/01/14 01:06:01;;;;;;;2.58;2.38;;;;;;;0.44;100.00;95444.84;1040030;28;20043;-82
2021/01/14 01:06:33;;;;;;;3.30;2.67;;;;;;;0.46;100.00;95444.63;1035815;28;20084;-82
2021/01/14 01:07:05;;;;;;;2.90;2.70;;;;;;;0.45;100.00;95443.84;1032138;28;20593;-82
2021/01/14 01:07:36;;;;;;;2.30;2.10;;;;;;;0.46;100.00;95445.44;1029300;28;20015;-82
2021/01/14 01:08:06;;;;;;;2.92;2.60;;;;;;;0.48;100.00;95450.47;1031976;28;20053;-82
2021/01/14 01:08:37;;;;;;;2.92;2.70;;;;;;;0.48;100.00;95453.88;1037851;28;20045;-81
2021/01/14 01:09:08;;;;;;;2.75;2.55;;;;;;;0.51;100.00;95453.47;1036115;28;20038;-82
2021/01/14 01:09:38;;;;;;;2.38;2.17;;;;;;;0.40;100.00;95446.25;1039926;28;20052;-82
2021/01/14 01:10:09;;;;;;;2.40;2.20;;;;;;;0.48;100.00;95459.09;1040069;28;20375;-81
2021/01/14 01:10:39;;;;;;;2.58;2.38;;;;;;;0.47;100.00;95460.06;1040123;28;20450;-82
2021/01/14 01:11:10;;;;;;;2.67;2.47;;;;;;;0.48;100.00;95469.53;1039919;28;20455;-82
2021/01/14 01:11:40;;;;;;;2.65;2.45;;;;;;;0.47;100.00;95454.84;1039896;28;20053;-81
2021/01/14 01:12:11;;;;;;;2.60;2.40;;;;;;;0.51;100.00;95466.50;1035762;28;20037;-81
2021/01/14 01:12:41;;;;;;;2.83;2.50;;;;;;;0.50;100.00;95467.50;1031839;28;20077;-81
2021/01/14 01:13:12;;;;;;;2.72;2.50;;;;;;;0.48;100.00;95461.69;1031714;28;20026;-81
2021/01/14 01:13:42;;;;;;;2.60;2.40;;;;;;;0.48;100.00;95456.50;1032376;28;20446;-81
2021/01/14 01:14:14;;;;;;;2.65;2.45;;;;;;;0.47;100.00;95456.66;1039372;28;20502;-80
2021/01/14 01:14:44;;;;;;;5.18;2.78;;;;;;;0.47;100.00;95452.25;1038912;28;20033;-81
2021/01/14 01:15:15;;;;;;;2.50;2.30;;;;;;;0.46;100.00;95455.06;1044473;28;20032;-81
2021/01/14 01:15:45;;;;;;;2.60;2.40;;;;;;;0.46;100.00;95455.88;1044218;28;20025;-81
2021/01/14 01:16:17;;;;;;;2.55;2.35;;;;;;;0.48;100.00;95453.88;1045575;28;20033;-82
2021/01/14 01:16:47;;;;;;;2.78;2.25;;;;;;;0.49;100.00;95465.91;1045077;28;20036;-83
2021/01/14 01:17:18;;;;;;;2.88;2.60;;;;;;;0.49;100.00;95462.50;1044970;28;20486;-82
2021/01/14 01:17:49;;;;;;;2.78;2.58;;;;;;;0.50;100.00;95472.72;1045417;28;20051;-82
2021/01/14 01:18:20;;;;;;;2.55;2.35;;;;;;;0.52;100.00;95475.94;1044904;28;20043;-82
2021/01/14 01:18:50;;;;;;;2.97;2.70;;;;;;;0.52;100.00;95472.53;1040894;28;20498;-82
2021/01/14 01:19:20;;;;;;;3.33;2.67;;;;;;;0.51;100.00;95474.31;1038363;28;20079;-81
2021/01/14 01:19:51;;;;;;;2.80;2.60;;;;;;;0.51;100.00;95483.97;1035758;28;20510;-80
2021/01/14 01:20:21;;;;;;;2.78;2.53;;;;;;;0.52;100.00;95478.53;1035946;28;20030;-80
2021/01/14 01:20:52;;;;;;;3.15;2.63;;;;;;;0.52;100.00;95478.53;1040108;28;20025;-80
2021/01/14 01:21:22;;;;;;;2.90;2.28;;;;;;;0.53;100.00;95487.97;1037162;28;20061;-80
2021/01/14 01:21:53;;;;;;;3.00;2.70;;;;;;;0.53;100.00;95493.19;1040074;28;20022;-80
2021/01/14 01:22:23;;;;;;;2.58;2.38;;;;;;;0.54;100.00;95494.78;1040720;28;20021;-81
2021/01/14 01:22:58;;;;;;;2.97;2.70;;;;;;;0.54;100.00;95483.53;1041272;28;20029;-81
2021/01/14 01:23:29;;;;;;;2.65;2.42;;;;;;;0.52;100.00;95478.53;1048414;28;20031;-80
2021/01/14 01:23:59;;;;;;;2.80;2.60;;;;;;;0.51;100.00;95487.38;1044165;28;20024;-80
2021/01/14 01:24:30;;;;;;;4.82;3.95;;;;;;;0.47;100.00;95467.88;1043427;28;20040;-79
2021/01/14 01:25:00;;;;;;;4.20;3.55;;;;;;;0.50;100.00;95472.72;1043812;28;20021;-80
2021/01/14 01:25:31;;;;;;;3.47;3.17;;;;;;;0.49;100.00;95481.56;1039938;28;20032;-80
2021/01/14 01:26:02;;;;;;;3.20;2.67;;;;;;;0.45;100.00;95469.91;1044345;28;20025;-78
2021/01/14 01:26:32;;;;;;;3.42;3.13;;;;;;;0.49;100.00;95468.50;1044405;28;20445;-78
2021/01/14 01:27:03;;;;;;;2.97;2.70;;;;;;;0.48;100.00;95472.13;1044597;28;20023;-78
2021/01/14 01:27:36;;;;;;;2.40;2.20;;;;;;;0.48;100.00;95482.56;1043982;28;20033;-78
2021/01/14 01:28:07;;;;;;;2.97;2.67;;;;;;;0.49;100.00;95470.31;1044044;28;20687;-78
2021/01/14 01:28:37;;;;;;;3.00;2.80;;;;;;;0.48;100.00;95474.75;1044204;28;20480;-78
2021/01/14 01:29:09;;;;;;;2.80;2.60;;;;;;;0.48;100.00;95466.91;1043724;28;20024;-78
2021/01/14 01:29:40;;;;;;;2.75;2.55;;;;;;;0.47;100.00;95470.50;1044451;28;20033;-78
2021/01/14 01:30:13;;;;;;;2.60;2.40;;;;;;;0.48;100.00;95469.53;1044162;28;20033;-79
2021/01/14 01:30:43;;;;;;;2.58;2.38;;;;;;;0.46;100.00;95465.50;1044172;28;20500;-80
2021/01/14 01:31:15;;;;;;;2.78;2.58;;;;;;;0.45;100.00;95456.06;1043765;28;20037;-80
2021/01/14 01:31:46;;;;;;;3.60;3.03;;;;;;;0.43;100.00;95451.06;1044203;28;20075;-82
2021/01/14 01:32:17;;;;;;;3.03;2.80;;;;;;;0.43;100.00;95458.88;1039740;28;20512;-82
2021/01/14 01:32:48;;;;;;;3.40;2.83;;;;;;;0.44;100.00;95467.50;1044104;28;20068;-79
2021/01/14 01:33:18;;;;;;;2.60;2.40;;;;;;;0.45;99.99;95480.34;1041743;28;20075;-80
2021/01/14 01:33:49;;;;;;;2.85;2.53;;;;;;;0.44;100.00;95478.72;1040166;28;20502;-80
2021/01/14 01:34:19;;;;;;;2.53;2.33;;;;;;;0.45;99.98;95482.94;1039946;28;20021;-80
2021/01/14 01:34:50;;;;;;;2.47;2.28;;;;;;;0.45;99.96;95482.94;1040074;28;20021;-80
2021/01/14 01:35:20;;;;;;;2.65;2.45;;;;;;;0.46;100.00;95476.72;1042546;28;20020;-80
2021/01/14 01:35:50;;;;;;;4.72;2.60;;;;;;;0.46;100.00;95465.50;1044095;28;20088;-80
2021/01/14 01:36:21;;;;;;;2.63;2.42;;;;;;;0.47;99.69;95465.28;1044073;28;20151;-80
2021/01/14 01:36:51;;;;;;;4.00;2.67;;;;;;;0.49;98.97;95473.72;1039965;28;20025;-79
2021/01/14 01:37:22;;;;;;;2.72;2.53;;;;;;;0.49;98.89;95481.56;1037184;28;20025;-80
2021/01/14 01:37:52;;;;;;;2.35;2.15;;;;;;;0.45;98.51;95480.34;1040098;28;20025;-80
2021/01/14 01:38:23;;;;;;;2.35;2.13;;;;;;;0.48;98.62;95484.38;1040319;28;20009;-80
2021/01/14 01:38:53;;;;;;;2.33;2.13;;;;;;;0.47;98.25;95488.75;1044545;28;20021;-80
2021/01/14 01:39:24;;;;;;;2.33;2.10;;;;;;;0.46;98.25;95492.38;1039916;28;20017;-80
2021/01/14 01:39:54;;;;;;;2.67;2.30;;;;;;;0.48;98.27;95495.59;1036111;28;20014;-82
2021/01/14 01:40:25;;;;;;;2.33;2.13;;;;;;;0.47;98.14;95487.94;1035771;28;20456;-82
2021/01/14 01:40:56;;;;;;;3.42;2.00;;;;;;;0.49;97.91;95485.97;1036229;28;20097;-82
2021/01/14 01:41:26;;;;;;;2.20;1.90;;;;;;;0.49;97.73;95476.34;1040054;28;20474;-82
2021/01/14 01:41:57;;;;;;;1.90;1.80;;;;;;;0.50;97.71;95475.34;1044170;28;20021;-81
2021/01/14 01:42:28;;;;;;;2.47;2.28;;;;;;;0.50;97.61;95462.28;1039834;28;20013;-81
2021/01/14 01:42:58;;;;;;;2.17;1.92;;;;;;;0.49;97.92;95460.69;1040338;28;20061;-80
2021/01/14 01:43:29;;;;;;;2.67;2.05;;;;;;;0.49;97.46;95455.47;1041513;28;20036;-81
2021/01/14 01:44:00;;;;;;;3.15;1.90;;;;;;;0.48;97.45;95464.31;1042716;28;20014;-79
2021/01/14 01:44:30;;;;;;;2.35;1.95;;;;;;;0.49;97.05;95459.91;1046351;28;20378;-80
2021/01/14 01:45:01;;;;;;;2.53;2.33;;;;;;;0.44;96.91;95463.09;1044397;28;20075;-80
2021/01/14 01:45:32;;;;;;;2.53;2.30;;;;;;;0.44;96.58;95463.09;1042368;28;20417;-80
2021/01/14 01:46:02;;;;;;;2.42;1.85;;;;;;;0.44;97.00;95457.88;1044411;28;20690;-80
2021/01/14 01:46:33;;;;;;;2.15;1.95;;;;;;;0.48;96.91;95471.34;1039893;28;20032;-80
2021/01/14 01:47:07;;;;;;;2.70;2.17;;;;;;;0.47;96.93;95483.53;1039983;28;20386;-78
2021/01/14 01:47:37;;;;;;;2.33;2.13;;;;;;;0.47;96.88;95496.56;1039800;28;20422;-79
2021/01/14 01:48:09;;;;;;;2.33;2.13;;;;;;;0.45;96.61;95493.38;1033405;28;20036;-78
2021/01/14 01:48:40;;;;;;;1.95;1.63;;;;;;;0.46;96.69;95494.97;1035945;28;20065;-79
2021/01/14 01:49:10;;;;;;;3.20;1.98;;;;;;;0.49;96.68;95491.97;1035889;28;20027;-79
2021/01/14 01:49:41;;;;;;;2.20;2.00;;;;;;;0.48;97.29;95487.78;1036611;28;20391;-79
2021/01/14 01:50:12;;;;;;;3.25;2.15;;;;;;;0.47;97.10;95483.53;1044327;28;20075;-80
2021/01/14 01:50:43;;;;;;;2.22;2.03;;;;;;;0.47;96.90;95488.75;1048229;28;20517;-81
2021/01/14 01:51:14;;;;;;;2.60;2.40;;;;;;;0.46;96.39;95479.31;1044089;28;20051;-80
2021/01/14 01:51:44;;;;;;;2.20;2.00;;;;;;;0.45;96.45;95467.28;1040010;28;20026;-80
2021/01/14 01:52:14;;;;;;;2.30;2.10;;;;;;;0.49;96.48;95463.31;1035904;28;20018;-81
2021/01/14 01:52:46;;;;;;;3.22;2.92;;;;;;;0.48;97.09;95466.13;1033206;28;20504;-81
2021/01/14 01:53:17;;;;;;;2.25;2.05;;;;;;;0.51;96.71;95468.31;1028034;28;20552;-81
2021/01/14 01:53:47;;;;;;;2.08;1.98;;;;;;;0.48;96.49;95474.75;1032054;28;20071;-80
2021/01/14 01:54:18;;;;;;;2.50;2.30;;;;;;;0.48;96.59;95473.94;1027849;28;20373;-80
2021/01/14 01:54:49;;;;;;;3.00;2.03;;;;;;;0.47;96.65;95483.53;1028571;28;20035;-78
2021/01/14 01:55:19;;;;;;;2.90;2.38;;;;;;;0.48;97.02;95484.38;1031768;28;20015;-79
2021/01/14 01:55:50;;;;;;;3.13;2.35;;;;;;;0.50;96.88;95483.16;1031975;28;20027;-78
2021/01/14 01:56:20;;;;;;;2.38;2.15;;;;;;;0.46;96.65;95475.91;1036116;28;20014;-79
2021/01/14 01:56:50;;;;;;;2.30;2.10;;;;;;;0.45;96.21;95484.75;1036027;28;20029;-79
2021/01/14 01:57:21;;;;;;;2.50;2.30;;;;;;;0.45;96.90;95484.75;1039909;28;20014;-79
2021/01/14 01:57:51;;;;;;;2.60;2.40;;;;;;;0.45;96.93;95480.34;1031783;28;20026;-80
2021/01/14 01:58:22;;;;;;;3.13;2.60;;;;;;;0.46;96.94;95481.94;1027881;28;20015;-81
2021/01/14 01:58:55;;;;;;;2.33;2.13;;;;;;;0.45;96.44;95488.16;1031943;28;20069;-80
2021/01/14 01:59:26;;;;;;;2.35;2.13;;;;;;;0.46;96.90;95484.53;1032768;28;20025;-80
2021/01/14 01:59:56;;;;;;;2.38;2.17;;;;;;;0.44;96.96;95486.56;1036443;28;20033;-80
2021/01/14 02:00:27;;;;;;;2.60;2.40;;;;;;;0.45;96.59;95493.38;1041293;28;20010;-81
2021/01/14 02:00:57;;;;;;;2.38;2.17;;;;;;;0.46;96.69;95489.75;1044152;28;20037;-80
2021/01/14 02:01:27;;;;;;;2.78;2.58;;;;;;;0.46;96.68;95481.94;1044273;28;20025;-80
2021/01/14 02:02:25;;;;;;;2.20;2.00;;;;;;;0.48;96.91;95473.94;1044297;28;20036;-80
2021/01/14 02:02:55;;;;;;;3.38;2.83;;;;;;;0.49;97.20;95475.53;1030316;28;20031;-80
2021/01/14 02:03:30;;;;;;;2.72;2.53;;;;;;;0.46;97.26;95468.91;1040302;28;20356;-80
2021/01/14 02:04:00;;;;;;;2.60;2.40;;;;;;;0.46;96.84;95487.16;1039974;28;20025;-80
2021/01/14 02:04:31;;;;;;;2.60;2.40;;;;;;;0.45;97.03;95477.72;1031685;28;20022;-80
2021/01/14 02:05:01;;;;;;;2.55;2.35;;;;;;;0.45;97.13;95485.53;1031831;28;20022;-80
2021/01/14 02:05:32;;;;;;;3.00;2.55;;;;;;;0.44;97.23;95486.56;1031642;28;20735;-80
2021/01/14 02:06:03;;;;;;;2.55;2.35;;;;;;;0.46;97.12;95489.75;1031965;28;20159;-80
2021/01/14 02:06:42;;;;;;;2.75;2.55;;;;;;;0.42;97.12;95485.16;1040257;28;20021;-80
2021/01/14 02:07:15;;;;;;;2.50;2.30;;;;;;;0.42;97.27;95495.59;1036040;28;20036;-81
2021/01/14 02:08:06;;;;;;;2.72;2.50;;;;;;;0.42;97.93;95488.56;1031729;28;20025;-80
2021/01/14 02:08:49;;;;;;;2.67;2.47;;;;;;;0.41;98.15;95497.38;1031924;28;20037;-80
2021/01/14 02:09:20;;;;;;;2.80;2.60;;;;;;;0.43;98.25;95486.75;1032993;28;20031;-80
2021/01/14 02:09:50;;;;;;;2.72;2.53;;;;;;;0.43;98.10;95487.56;1036187;28;20022;-80
2021/01/14 02:10:44;;;;;;;2.42;2.22;;;;;;;0.45;98.63;95487.34;1031909;28;20414;-80
2021/01/14 02:11:33;;;;;;;2.65;2.45;;;;;;;0.46;98.68;95488.94;1032000;28;20045;-80
2021/01/14 02:12:06;;;;;;;3.67;3.30;;;;;;;0.44;98.61;95494.38;1033640;28;20042;-80
2021/01/14 02:12:41;;;;;;;3.05;2.75;;;;;;;0.47;98.75;95491.34;1036274;28;20050;-80
2021/01/14 02:13:33;;;;;;;3.47;3.17;;;;;;;0.45;98.80;95490.75;1036273;28;20383;-81
2021/01/14 02:14:14;;;;;;;3.20;2.90;;;;;;;0.45;98.79;95493.38;1040604;28;20018;-80
2021/01/14 02:14:45;;;;;;;3.15;2.90;;;;;;;0.44;98.60;95499.59;1045056;28;20044;-80
2021/01/14 02:15:15;;;;;;;3.60;3.30;;;;;;;0.44;98.88;95496.19;1044644;28;20013;-80
2021/01/14 02:15:47;;;;;;;3.47;3.17;;;;;;;0.45;98.98;95485.53;1042736;28;20017;-81
2021/01/14 02:16:18;;;;;;;3.35;3.05;;;;;;;0.46;99.23;95492.38;1036597;28;20552;-80
2021/01/14 02:16:50;;;;;;;3.30;3.00;;;;;;;0.47;99.09;95496.56;1032519;28;20033;-80
2021/01/14 02:17:20;;;;;;;3.35;3.05;;;;;;;0.46;99.21;95492.38;1034265;28;20023;-80
2021/01/14 02:17:52;;;;;;;3.67;3.38;;;;;;;0.43;99.20;95492.78;1034517;28;20034;-80
2021/01/14 02:18:22;;;;;;;4.05;3.20;;;;;;;0.46;99.09;95502.78;1034530;28;20011;-80
2021/01/14 02:18:55;;;;;;;3.80;3.50;;;;;;;0.45;99.11;95505.59;1030977;28;20636;-80
2021/01/14 02:19:38;;;;;;;3.75;3.40;;;;;;;0.45;99.24;95498.59;1035379;28;20042;-80
2021/01/14 02:20:12;;;;;;;3.45;3.15;;;;;;;0.45;99.31;95505.59;1040338;28;20031;-80
2021/01/14 02:20:43;;;;;;;3.55;3.25;;;;;;;0.40;99.40;95508.81;1040146;28;20045;-80
2021/01/14 02:21:13;;;;;;;3.88;3.50;;;;;;;0.38;99.61;95505.63;1032475;28;20034;-80
2021/01/14 02:21:47;;;;;;;3.92;3.53;;;;;;;0.43;99.58;95508.41;1026525;29;20062;-80
2021/01/14 02:22:37;;;;;;;3.75;3.45;;;;;;;0.44;99.48;95510.00;1025555;29;20465;-80
2021/01/14 02:23:21;;;;;;;3.70;3.40;;;;;;;0.42;99.29;95506.81;1020014;29;20385;-80
2021/01/14 02:24:40;;;;;;;3.20;2.90;;;;;;;0.43;99.57;95500.59;1024692;28;20103;-80
2021/01/14 02:25:14;;;;;;;3.40;3.10;;;;;;;0.42;100.00;95485.16;1032473;28;20623;-80
2021/01/14 02:26:10;;;;;;;3.55;3.25;;;;;;;0.41;99.87;95489.56;1031143;28;20027;-80
2021/01/14 02:26:40;;;;;;;3.70;3.40;;;;;;;0.37;99.78;95487.56;1035908;28;20038;-79
2021/01/14 02:27:10;;;;;;;3.85;3.50;;;;;;;0.35;99.61;95499.97;1031819;28;20030;-80
2021/01/14 02:27:41;;;;;;;3.90;3.60;;;;;;;0.37;99.96;95498.81;1035249;28;20025;-80
2021/01/14 02:28:11;;;;;;;4.15;3.85;;;;;;;0.36;100.00;95496.41;1031716;28;20098;-80
2021/01/14 02:28:44;;;;;;;4.38;4.07;;;;;;;0.37;100.00;95498.81;1027692;28;20046;-80
2021/01/14 02:29:15;;;;;;;3.78;3.47;;;;;;;0.40;100.00;95508.03;1028558;28;20385;-80
2021/01/14 02:29:45;;;;;;;3.80;3.50;;;;;;;0.41;100.00;95502.59;1038708;28;20181;-80
2021/01/14 02:30:16;;;;;;;4.00;3.60;;;;;;;0.46;99.93;95508.00;1040392;28;20482;-80
2021/01/14 02:30:46;;;;;;;3.67;3.30;;;;;;;0.43;100.00;95507.63;1035602;28;20021;-80
2021/01/14 02:31:17;;;;;;;2.97;2.75;;;;;;;0.48;99.67;95516.47;1031789;28;20018;-80
2021/01/14 02:31:47;;;;;;;4.05;3.75;;;;;;;0.47;99.56;95520.03;1031907;28;20022;-80
2021/01/14 02:32:19;;;;;;;3.47;3.17;;;;;;;0.50;98.92;95518.84;1032107;28;20029;-79
2021/01/14 02:32:50;;;;;;;3.72;3.42;;;;;;;0.45;99.40;95514.22;1040338;28;20017;-80
2021/01/14 02:33:20;;;;;;;3.92;3.53;;;;;;;0.43;99.50;95513.63;1043445;28;20279;-80